sensor_id;sensor_type;location;lat;lon;timestamp;pressure;altitude;pressure_sealevel;temperature;humidity
5913;BME280;2982;42.684;23.356;2023-03-01T00:01:12;95409.25;;;5.89;100.00
5913;BME280;2982;42.684;23.356;2023-03-01T00:03:38;95398.31;;;5.90;100.00
5913;BME280;2982;42.684;23.356;2023-03-01T00:06:04;95394.44;;;5.77;100.00
5913;BME280;2982;42.684;23.356;2023-03-01T00:08:30;95389.16;;;5.86;100.00
5913;BME280;2982;42.684;23.356;2023-03-01T00:13:46;95390.34;;;6.05;100.00
5913;BME280;2982;42.684;23.356;2023-03-01T00:16:16;95396.13;;;6.09;100.00
5913;BME280;2982;42.684;23.356;2023-03-01T00:18:42;95390.34;;;6.05;100.00
5913;BME280;2982;42.684;23.356;2023-03-01T00:21:07;95382.91;;;6.01;100.00
5913;BME280;2982;42.684;23.356;2023-03-01T00:23:36;95380.56;;;5.93;100.00
5913;BME280;2982;42.684;23.356;2023-03-01T00:26:02;95375.38;;;5.99;100.00
5913;BME280;2982;42.684;23.356;2023-03-01T00:28:27;95368.06;;;5.90;100.00
5913;BME280;2982;42.684;23.356;2023-03-01T00:30:52;95360.72;;;5.81;100.00
5913;BME280;2982;42.684;23.356;2023-03-01T00:33:18;95366.47;;;5.88;100.00
5913;BME280;2982;42.684;23.356;2023-03-01T00:35:43;95365.88;;;5.78;100.00
5913;BME280;2982;42.684;23.356;2023-03-01T00:38:09;95350.34;;;5.61;100.00
5913;BME280;2982;42.684;23.356;2023-03-01T00:40:35;95361.97;;;5.66;100.00
5913;BME280;2982;42.684;23.356;2023-03-01T00:43:01;95361.22;;;5.63;100.00
5913;BME280;2982;42.684;23.356;2023-03-01T00:45:27;95357.84;;;5.64;100.00
5913;BME280;2982;42.684;23.356;2023-03-01T00:47:53;95344.66;;;5.54;100.00
5913;BME280;2982;42.684;23.356;2023-03-01T00:50:18;95344.69;;;5.53;100.00
5913;BME280;2982;42.684;23.356;2023-03-01T00:52:44;95367.09;;;5.63;100.00
5913;BME280;2982;42.684;23.356;2023-03-01T00:55:10;95344.03;;;5.46;100.00
5913;BME280;2982;42.684;23.356;2023-03-01T00:57:35;95338.09;;;5.49;100.00
5913;BME280;2982;42.684;23.356;2023-03-01T01:00:01;95357.31;;;5.51;100.00
5913;BME280;2982;42.684;23.356;2023-03-01T01:02:27;95352.28;;;5.51;100.00
5913;BME280;2982;42.684;23.356;2023-03-01T01:04:53;95353.22;;;5.49;100.00
5913;BME280;2982;42.684;23.356;2023-03-01T01:07:18;95353.31;;;5.44;100.00
5913;BME280;2982;42.684;23.356;2023-03-01T01:09:43;95345.88;;;5.40;100.00
5913;BME280;2982;42.684;23.356;2023-03-01T01:12:08;95360.97;;;5.41;100.00
5913;BME280;2982;42.684;23.356;2023-03-01T01:14:34;95350.94;;;5.40;100.00
5913;BME280;2982;42.684;23.356;2023-03-01T01:17:00;95359.38;;;5.37;100.00
5913;BME280;2982;42.684;23.356;2023-03-01T01:19:26;95358.59;;;5.35;100.00
5913;BME280;2982;42.684;23.356;2023-03-01T01:21:51;95356.69;;;5.45;100.00
5913;BME280;2982;42.684;23.356;2023-03-01T01:24:17;95352.34;;;5.50;100.00
5913;BME280;2982;42.684;23.356;2023-03-01T01:26:43;95345.94;;;5.37;100.00
5913;BME280;2982;42.684;23.356;2023-03-01T01:29:09;95352.22;;;5.54;100.00
5913;BME280;2982;42.684;23.356;2023-03-01T01:31:36;95357.28;;;5.53;100.00
5913;BME280;2982;42.684;23.356;2023-03-01T01:34:03;95353.09;;;5.53;100.00
5913;BME280;2982;42.684;23.356;2023-03-01T01:36:30;95363.13;;;5.55;100.00
5913;BME280;2982;42.684;23.356;2023-03-01T01:38:55;95345.66;;;5.49;100.00
5913;BME280;2982;42.684;23.356;2023-03-01T01:41:21;95363.13;;;5.55;100.00
5913;BME280;2982;42.684;23.356;2023-03-01T01:44:08;95377.19;;;5.63;100.00
5913;BME280;2982;42.684;23.356;2023-03-01T01:46:36;95369.75;;;5.59;100.00
5913;BME280;2982;42.684;23.356;2023-03-01T01:49:25;95378.00;;;5.64;100.00
5913;BME280;2982;42.684;23.356;2023-03-01T01:52:07;95377.06;;;5.68;100.00
5913;BME280;2982;42.684;23.356;2023-03-01T01:55:05;95351.97;;;5.63;100.00
5913;BME280;2982;42.684;23.356;2023-03-01T01:57:38;95370.25;;;5.70;100.00
5913;BME280;2982;42.684;23.356;2023-03-01T02:00:09;95347.13;;;5.56;100.00
5913;BME280;2982;42.684;23.356;2023-03-01T02:02:36;95353.66;;;5.63;100.00
5913;BME280;2982;42.684;23.356;2023-03-01T02:05:08;95356.91;;;5.66;100.00
5913;BME280;2982;42.684;23.356;2023-03-01T02:07:34;95351.72;;;5.72;100.00
5913;BME280;2982;42.684;23.356;2023-03-01T02:10:00;95358.13;;;5.84;100.00
5913;BME280;2982;42.684;23.356;2023-03-01T02:12:27;95351.63;;;5.75;100.00
5913;BME280;2982;42.684;23.356;2023-03-01T02:14:52;95336.59;;;5.72;100.00
5913;BME280;2982;42.684;23.356;2023-03-01T02:17:18;95347.50;;;5.73;100.00
5913;BME280;2982;42.684;23.356;2023-03-01T02:22:25;95338.25;;;5.73;100.00
5913;BME280;2982;42.684;23.356;2023-03-01T02:27:46;95345.06;;;5.70;100.00
5913;BME280;2982;42.684;23.356;2023-03-01T02:30:13;95339.31;;;5.65;100.00
5913;BME280;2982;42.684;23.356;2023-03-01T02:32:41;95349.41;;;5.65;100.00
5913;BME280;2982;42.684;23.356;2023-03-01T02:35:10;95355.31;;;5.64;100.00
5913;BME280;2982;42.684;23.356;2023-03-01T02:37:36;95349.72;;;5.53;100.00
5913;BME280;2982;42.684;23.356;2023-03-01T02:40:06;95350.72;;;5.47;100.00
5913;BME280;2982;42.684;23.356;2023-03-01T02:42:36;95354.22;;;5.42;100.00
5913;BME280;2982;42.684;23.356;2023-03-01T02:45:05;95350.84;;;5.43;100.00
5913;BME280;2982;42.684;23.356;2023-03-01T02:47:30;95348.19;;;5.47;100.00
5913;BME280;2982;42.684;23.356;2023-03-01T02:49:56;95345.75;;;5.46;100.00
5913;BME280;2982;42.684;23.356;2023-03-01T02:52:33;95349.84;;;5.48;100.00
5913;BME280;2982;42.684;23.356;2023-03-01T02:55:14;95342.97;;;5.55;100.00
5913;BME280;2982;42.684;23.356;2023-03-01T02:57:44;95345.41;;;5.58;100.00
5913;BME280;2982;42.684;23.356;2023-03-01T03:00:17;95336.97;;;5.59;100.00
5913;BME280;2982;42.684;23.356;2023-03-01T03:02:43;95346.22;;;5.58;100.00
5913;BME280;2982;42.684;23.356;2023-03-01T03:05:12;95347.81;;;5.62;100.00
5913;BME280;2982;42.684;23.356;2023-03-01T03:07:40;95345.88;;;5.70;100.00
5913;BME280;2982;42.684;23.356;2023-03-01T03:10:08;95324.53;;;5.53;100.00
5913;BME280;2982;42.684;23.356;2023-03-01T03:12:34;95349.53;;;5.60;100.00
5913;BME280;2982;42.684;23.356;2023-03-01T03:14:59;95343.03;;;5.52;100.00
5913;BME280;2982;42.684;23.356;2023-03-01T03:17:24;95336.28;;;5.54;100.00
5913;BME280;2982;42.684;23.356;2023-03-01T03:19:50;95347.22;;;5.53;100.00
5913;BME280;2982;42.684;23.356;2023-03-01T03:22:15;95350.31;;;5.62;100.00
5913;BME280;2982;42.684;23.356;2023-03-01T03:24:40;95349.53;;;5.60;100.00
5913;BME280;2982;42.684;23.356;2023-03-01T03:27:06;95348.78;;;5.57;100.00
5913;BME280;2982;42.684;23.356;2023-03-01T03:29:32;95353.06;;;5.55;100.00
5913;BME280;2982;42.684;23.356;2023-03-01T03:31:57;95349.94;;;5.45;100.00
5913;BME280;2982;42.684;23.356;2023-03-01T03:34:23;95358.88;;;5.57;100.00
5913;BME280;2982;42.684;23.356;2023-03-01T03:36:53;95352.38;;;5.48;100.00
5913;BME280;2982;42.684;23.356;2023-03-01T03:39:18;95349.94;;;5.45;100.00
5913;BME280;2982;42.684;23.356;2023-03-01T03:41:43;95350.72;;;5.47;100.00
5913;BME280;2982;42.684;23.356;2023-03-01T03:44:09;95365.09;;;5.44;100.00
5913;BME280;2982;42.684;23.356;2023-03-01T03:46:34;95362.44;;;5.50;100.00
5913;BME280;2982;42.684;23.356;2023-03-01T03:48:59;95361.63;;;5.48;100.00
5913;BME280;2982;42.684;23.356;2023-03-01T03:51:24;95365.81;;;5.49;100.00
5913;BME280;2982;42.684;23.356;2023-03-01T03:53:50;95361.63;;;5.48;100.00
5913;BME280;2982;42.684;23.356;2023-03-01T03:56:15;95368.22;;;5.52;100.00
5913;BME280;2982;42.684;23.356;2023-03-01T03:58:40;95370.88;;;5.47;100.00
5913;BME280;2982;42.684;23.356;2023-03-01T04:01:06;95369.31;;;5.43;100.00
5913;BME280;2982;42.684;23.356;2023-03-01T04:03:32;95345.31;;;5.30;100.00
5913;BME280;2982;42.684;23.356;2023-03-01T04:05:59;95371.97;;;5.37;100.00
5913;BME280;2982;42.684;23.356;2023-03-01T04:08:25;95367.97;;;5.30;100.00
5913;BME280;2982;42.684;23.356;2023-03-01T04:10:52;95373.03;;;5.28;100.00
5913;BME280;2982;42.684;23.356;2023-03-01T04:13:20;95367.13;;;5.29;100.00
5913;BME280;2982;42.684;23.356;2023-03-01T04:15:48;95374.59;;;5.32;100.00
5913;BME280;2982;42.684;23.356;2023-03-01T04:18:15;95379.63;;;5.34;100.00
5913;BME280;2982;42.684;23.356;2023-03-01T04:20:41;95375.66;;;5.24;100.00
5913;BME280;2982;42.684;23.356;2023-03-01T04:23:19;95365.56;;;5.25;100.00
5913;BME280;2982;42.684;23.356;2023-03-01T04:25:49;95358.03;;;5.24;100.00
5913;BME280;2982;42.684;23.356;2023-03-01T04:28:15;95364.75;;;5.23;100.00
5913;BME280;2982;42.684;23.356;2023-03-01T04:30:40;95362.34;;;5.20;100.00
5913;BME280;2982;42.684;23.356;2023-03-01T04:33:10;95369.03;;;5.21;100.00
5913;BME280;2982;42.684;23.356;2023-03-01T04:35:36;95364.00;;;5.21;100.00
5913;BME280;2982;42.684;23.356;2023-03-01T04:38:03;95373.13;;;5.25;100.00
5913;BME280;2982;42.684;23.356;2023-03-01T04:40:28;95367.50;;;5.14;100.00
5913;BME280;2982;42.684;23.356;2023-03-01T04:42:53;95362.72;;;5.05;100.00
5913;BME280;2982;42.684;23.356;2023-03-01T04:45:19;95362.94;;;4.96;100.00
5913;BME280;2982;42.684;23.356;2023-03-01T04:47:45;95362.94;;;4.96;100.00
5913;BME280;2982;42.684;23.356;2023-03-01T04:50:14;95360.38;;;4.99;100.00
5913;BME280;2982;42.684;23.356;2023-03-01T04:52:40;95347.00;;;4.96;100.00
5913;BME280;2982;42.684;23.356;2023-03-01T04:55:06;95365.00;;;5.14;100.00
5913;BME280;2982;42.684;23.356;2023-03-01T04:57:33;95350.94;;;5.06;100.00
5913;BME280;2982;42.684;23.356;2023-03-01T04:59:58;95335.19;;;4.99;100.00
5913;BME280;2982;42.684;23.356;2023-03-01T05:02:24;95356.81;;;5.06;100.00
5913;BME280;2982;42.684;23.356;2023-03-01T05:04:49;95356.81;;;5.06;100.00
5913;BME280;2982;42.684;23.356;2023-03-01T05:07:14;95361.75;;;5.11;100.00
5913;BME280;2982;42.684;23.356;2023-03-01T05:09:40;95364.28;;;5.09;100.00
5913;BME280;2982;42.684;23.356;2023-03-01T05:12:05;95360.13;;;5.08;100.00
5913;BME280;2982;42.684;23.356;2023-03-01T05:14:30;95360.78;;;5.15;100.00
5913;BME280;2982;42.684;23.356;2023-03-01T05:16:56;95367.47;;;5.17;100.00
5913;BME280;2982;42.684;23.356;2023-03-01T05:19:21;95361.53;;;5.18;100.00
5913;BME280;2982;42.684;23.356;2023-03-01T05:21:46;95369.91;;;5.20;100.00
5913;BME280;2982;42.684;23.356;2023-03-01T05:24:11;95358.22;;;5.18;100.00
5913;BME280;2982;42.684;23.356;2023-03-01T05:26:37;95364.13;;;5.17;100.00
5913;BME280;2982;42.684;23.356;2023-03-01T05:29:02;95352.53;;;5.10;100.00
5913;BME280;2982;42.684;23.356;2023-03-01T05:31:28;95365.81;;;5.16;100.00
5913;BME280;2982;42.684;23.356;2023-03-01T05:33:53;95367.38;;;5.20;100.00
5913;BME280;2982;42.684;23.356;2023-03-01T05:36:18;95343.28;;;5.10;100.00
5913;BME280;2982;42.684;23.356;2023-03-01T05:38:44;95357.28;;;5.20;100.00
5913;BME280;2982;42.684;23.356;2023-03-01T05:41:14;95357.22;;;5.23;100.00
5913;BME280;2982;42.684;23.356;2023-03-01T05:43:39;95377.94;;;5.35;100.00
5913;BME280;2982;42.684;23.356;2023-03-01T05:46:05;95373.47;;;5.44;100.00
5913;BME280;2982;42.684;23.356;2023-03-01T05:48:30;95374.47;;;5.39;100.00
5913;BME280;2982;42.684;23.356;2023-03-01T05:50:59;95367.00;;;5.36;100.00
5913;BME280;2982;42.684;23.356;2023-03-01T05:53:24;95385.16;;;5.47;100.00
5913;BME280;2982;42.684;23.356;2023-03-01T05:55:49;95355.34;;;5.31;100.00
5913;BME280;2982;42.684;23.356;2023-03-01T05:58:18;95353.34;;;5.10;100.00
5913;BME280;2982;42.684;23.356;2023-03-01T06:00:48;95380.47;;;5.33;100.00
5913;BME280;2982;42.684;23.356;2023-03-01T06:03:15;95390.50;;;5.36;100.00
5913;BME280;2982;42.684;23.356;2023-03-01T06:05:41;95389.59;;;5.37;100.00
5913;BME280;2982;42.684;23.356;2023-03-01T06:08:07;95392.25;;;5.32;100.00
5913;BME280;2982;42.684;23.356;2023-03-01T06:10:32;95396.56;;;5.27;100.00
5913;BME280;2982;42.684;23.356;2023-03-01T06:12:58;95397.56;;;5.22;100.00
5913;BME280;2982;42.684;23.356;2023-03-01T06:15:24;95392.44;;;5.25;100.00
5913;BME280;2982;42.684;23.356;2023-03-01T06:17:50;95380.97;;;5.13;100.00
5913;BME280;2982;42.684;23.356;2023-03-01T06:20:18;95398.75;;;5.07;100.00
5913;BME280;2982;42.684;23.356;2023-03-01T06:22:44;95407.75;;;5.17;100.00
5913;BME280;2982;42.684;23.356;2023-03-01T06:25:11;95404.28;;;5.21;100.00
5913;BME280;2982;42.684;23.356;2023-03-01T06:27:38;95402.81;;;5.13;100.00
5913;BME280;2982;42.684;23.356;2023-03-01T06:30:04;95412.78;;;5.17;100.00
5913;BME280;2982;42.684;23.356;2023-03-01T06:32:29;95396.13;;;5.12;100.00
5913;BME280;2982;42.684;23.356;2023-03-01T06:34:54;95395.22;;;5.14;100.00
5913;BME280;2982;42.684;23.356;2023-03-01T06:37:20;95406.72;;;5.24;100.00
5913;BME280;2982;42.684;23.356;2023-03-01T06:39:45;95411.13;;;5.16;100.00
5913;BME280;2982;42.684;23.356;2023-03-01T06:42:11;95410.91;;;5.25;100.00
5913;BME280;2982;42.684;23.356;2023-03-01T06:44:36;95407.81;;;5.14;100.00
5913;BME280;2982;42.684;23.356;2023-03-01T06:47:02;95402.53;;;5.23;100.00
5913;BME280;2982;42.684;23.356;2023-03-01T06:49:28;95399.13;;;5.26;100.00
5913;BME280;2982;42.684;23.356;2023-03-01T06:51:53;95370.88;;;5.15;100.00
5913;BME280;2982;42.684;23.356;2023-03-01T06:54:18;95406.16;;;5.47;100.00
5913;BME280;2982;42.684;23.356;2023-03-01T06:56:46;95418.50;;;5.56;100.00
5913;BME280;2982;42.684;23.356;2023-03-01T06:59:12;95405.78;;;5.61;100.00
5913;BME280;2982;42.684;23.356;2023-03-01T07:01:37;95375.78;;;5.52;100.00
5913;BME280;2982;42.684;23.356;2023-03-01T07:04:03;95419.59;;;5.78;100.00
5913;BME280;2982;42.684;23.356;2023-03-01T07:06:28;95406.19;;;5.78;100.00
5913;BME280;2982;42.684;23.356;2023-03-01T07:08:53;95411.84;;;5.88;100.00
5913;BME280;2982;42.684;23.356;2023-03-01T07:11:19;95404.97;;;5.93;100.00
5913;BME280;2982;42.684;23.356;2023-03-01T07:13:44;95417.56;;;5.93;100.00
5913;BME280;2982;42.684;23.356;2023-03-01T07:16:09;95389.41;;;5.77;100.00
5913;BME280;2982;42.684;23.356;2023-03-01T07:18:34;95403.78;;;6.06;100.00
5913;BME280;2982;42.684;23.356;2023-03-01T07:21:07;95392.81;;;6.07;100.00
5913;BME280;2982;42.684;23.356;2023-03-01T07:23:32;95412.28;;;6.31;100.00
5913;BME280;2982;42.684;23.356;2023-03-01T07:25:58;95411.84;;;6.17;100.00
5913;BME280;2982;42.684;23.356;2023-03-01T07:28:23;95396.47;;;5.97;100.00
5913;BME280;2982;42.684;23.356;2023-03-01T07:30:49;95411.50;;;6.00;100.00
5913;BME280;2982;42.684;23.356;2023-03-01T07:33:14;95385.81;;;5.87;100.00
5913;BME280;2982;42.684;23.356;2023-03-01T07:35:39;95386.00;;;6.10;100.00
5913;BME280;2982;42.684;23.356;2023-03-01T07:38:05;95385.41;;;6.30;100.00
5913;BME280;2982;42.684;23.356;2023-03-01T07:40:30;95392.19;;;6.57;100.00
5913;BME280;2982;42.684;23.356;2023-03-01T07:42:59;95402.44;;;6.53;100.00
5913;BME280;2982;42.684;23.356;2023-03-01T07:45:25;95405.09;;;6.76;100.00
5913;BME280;2982;42.684;23.356;2023-03-01T07:47:54;95381.00;;;6.66;100.00
5913;BME280;2982;42.684;23.356;2023-03-01T07:50:21;95379.03;;;6.74;100.00
5913;BME280;2982;42.684;23.356;2023-03-01T07:52:47;95386.63;;;6.74;100.00
5913;BME280;2982;42.684;23.356;2023-03-01T07:55:14;95372.53;;;6.39;100.00
5913;BME280;2982;42.684;23.356;2023-03-01T07:57:40;95374.00;;;6.46;100.00
5913;BME280;2982;42.684;23.356;2023-03-01T08:00:06;95368.31;;;6.40;100.00
5913;BME280;2982;42.684;23.356;2023-03-01T08:02:31;95379.84;;;6.76;100.00
5913;BME280;2982;42.684;23.356;2023-03-01T08:04:57;95394.41;;;6.94;100.00
5913;BME280;2982;42.684;23.356;2023-03-01T08:07:22;95384.19;;;7.24;100.00
5913;BME280;2982;42.684;23.356;2023-03-01T08:09:47;95369.63;;;7.32;100.00
5913;BME280;2982;42.684;23.356;2023-03-01T08:12:13;95380.66;;;7.54;100.00
5913;BME280;2982;42.684;23.356;2023-03-01T08:14:38;95375.81;;;7.48;100.00
5913;BME280;2982;42.684;23.356;2023-03-01T08:17:03;95367.66;;;7.40;100.00
5913;BME280;2982;42.684;23.356;2023-03-01T08:19:29;95372.34;;;7.26;100.00
5913;BME280;2982;42.684;23.356;2023-03-01T08:21:54;95380.13;;;7.44;100.00
5913;BME280;2982;42.684;23.356;2023-03-01T08:24:20;95381.06;;;7.67;100.00
5913;BME280;2982;42.684;23.356;2023-03-01T08:26:45;95376.47;;;7.78;100.00
5913;BME280;2982;42.684;23.356;2023-03-01T08:29:11;95388.00;;;7.85;100.00
5913;BME280;2982;42.684;23.356;2023-03-01T08:31:38;95385.59;;;7.57;100.00
5913;BME280;2982;42.684;23.356;2023-03-01T08:34:07;95383.84;;;7.59;100.00
5913;BME280;2982;42.684;23.356;2023-03-01T08:36:39;95373.78;;;7.58;100.00
5913;BME280;2982;42.684;23.356;2023-03-01T08:39:06;95368.25;;;7.71;100.00
5913;BME280;2982;42.684;23.356;2023-03-01T08:41:32;95375.28;;;7.88;100.00
5913;BME280;2982;42.684;23.356;2023-03-01T08:43:57;95394.75;;;7.84;100.00
5913;BME280;2982;42.684;23.356;2023-03-01T08:46:22;95360.66;;;7.96;100.00
5913;BME280;2982;42.684;23.356;2023-03-01T08:48:48;95373.25;;;8.21;100.00
5913;BME280;2982;42.684;23.356;2023-03-01T08:51:16;95362.16;;;8.23;100.00
5913;BME280;2982;42.684;23.356;2023-03-01T08:53:43;95373.84;;;8.04;100.00
5913;BME280;2982;42.684;23.356;2023-03-01T08:56:09;95364.75;;;7.98;100.00
5913;BME280;2982;42.684;23.356;2023-03-01T08:58:35;95378.84;;;8.06;100.00
5913;BME280;2982;42.684;23.356;2023-03-01T09:01:01;95378.91;;;7.79;100.00
5913;BME280;2982;42.684;23.356;2023-03-01T09:03:31;95371.59;;;7.96;100.00
5913;BME280;2982;42.684;23.356;2023-03-01T09:06:00;95363.84;;;8.01;100.00
5913;BME280;2982;42.684;23.356;2023-03-01T09:08:25;95352.66;;;7.83;100.00
5913;BME280;2982;42.684;23.356;2023-03-01T09:10:51;95373.16;;;7.99;100.00
5913;BME280;2982;42.684;23.356;2023-03-01T09:13:16;95375.78;;;8.21;100.00
5913;BME280;2982;42.684;23.356;2023-03-01T09:15:41;95371.06;;;8.35;100.00
5913;BME280;2982;42.684;23.356;2023-03-01T09:18:06;95349.84;;;8.14;100.00
5913;BME280;2982;42.684;23.356;2023-03-01T09:20:32;95375.06;;;8.40;100.00
5913;BME280;2982;42.684;23.356;2023-03-01T09:22:57;95334.22;;;8.03;100.00
5913;BME280;2982;42.684;23.356;2023-03-01T09:25:24;95334.63;;;7.92;100.00
5913;BME280;2982;42.684;23.356;2023-03-01T09:27:52;95365.19;;;8.10;100.00
5913;BME280;2982;42.684;23.356;2023-03-01T09:30:18;95344.84;;;8.13;100.00
5913;BME280;2982;42.684;23.356;2023-03-01T09:32:44;95371.94;;;8.34;100.00
5913;BME280;2982;42.684;23.356;2023-03-01T09:35:09;95357.09;;;8.23;100.00
5913;BME280;2982;42.684;23.356;2023-03-01T09:37:35;95344.34;;;8.03;100.00
5913;BME280;2982;42.684;23.356;2023-03-01T09:40:01;95369.94;;;7.95;100.00
5913;BME280;2982;42.684;23.356;2023-03-01T09:42:28;95348.38;;;8.09;100.00
5913;BME280;2982;42.684;23.356;2023-03-01T09:45:21;95356.22;;;8.24;100.00
5913;BME280;2982;42.684;23.356;2023-03-01T09:47:45;95354.78;;;8.40;100.00
5913;BME280;2982;42.684;23.356;2023-03-01T09:50:16;95362.03;;;8.26;100.00
5913;BME280;2982;42.684;23.356;2023-03-01T09:52:43;95359.19;;;8.12;100.00
5913;BME280;2982;42.684;23.356;2023-03-01T09:55:17;95357.63;;;8.33;100.00
5913;BME280;2982;42.684;23.356;2023-03-01T09:58:05;95350.81;;;8.35;100.00
5913;BME280;2982;42.684;23.356;2023-03-01T10:00:43;95346.31;;;8.42;100.00
5913;BME280;2982;42.684;23.356;2023-03-01T10:03:26;95337.47;;;8.53;100.00
5913;BME280;2982;42.684;23.356;2023-03-01T10:08:40;95329.56;;;8.61;100.00
5913;BME280;2982;42.684;23.356;2023-03-01T10:11:28;95332.84;;;8.84;100.00
5913;BME280;2982;42.684;23.356;2023-03-01T10:19:12;95329.00;;;9.16;100.00
5913;BME280;2982;42.684;23.356;2023-03-01T10:21:43;95330.72;;;8.74;100.00
5913;BME280;2982;42.684;23.356;2023-03-01T10:24:13;95333.63;;;8.65;100.00
5913;BME280;2982;42.684;23.356;2023-03-01T10:26:54;95316.94;;;8.59;100.00
5913;BME280;2982;42.684;23.356;2023-03-01T10:29:24;95316.78;;;8.42;100.00
5913;BME280;2982;42.684;23.356;2023-03-01T10:31:52;95313.72;;;8.34;100.00
5913;BME280;2982;42.684;23.356;2023-03-01T10:34:30;95313.25;;;8.23;100.00
5913;BME280;2982;42.684;23.356;2023-03-01T10:37:16;95281.88;;;8.27;100.00
5913;BME280;2982;42.684;23.356;2023-03-01T10:39:58;95309.59;;;8.75;100.00
5913;BME280;2982;42.684;23.356;2023-03-01T10:42:37;95308.09;;;8.91;100.00
5913;BME280;2982;42.684;23.356;2023-03-01T10:47:42;95275.84;;;8.74;100.00
5913;BME280;2982;42.684;23.356;2023-03-01T10:50:19;95268.50;;;8.89;100.00
5913;BME280;2982;42.684;23.356;2023-03-01T10:52:57;95304.88;;;9.28;100.00
5913;BME280;2982;42.684;23.356;2023-03-01T11:00:51;95303.13;;;9.49;100.00
5913;BME280;2982;42.684;23.356;2023-03-01T11:03:20;95301.81;;;9.40;100.00
5913;BME280;2982;42.684;23.356;2023-03-01T11:05:59;95306.13;;;9.38;100.00
5913;BME280;2982;42.684;23.356;2023-03-01T11:08:32;95296.69;;;9.42;100.00
5913;BME280;2982;42.684;23.356;2023-03-01T11:11:14;95275.47;;;9.63;100.00
5913;BME280;2982;42.684;23.356;2023-03-01T11:14:06;95295.59;;;9.86;100.00
5913;BME280;2982;42.684;23.356;2023-03-01T11:16:36;95297.97;;;9.89;100.00
5913;BME280;2982;42.684;23.356;2023-03-01T11:21:36;95297.25;;;9.87;100.00
5913;BME280;2982;42.684;23.356;2023-03-01T11:24:04;95286.47;;;10.01;100.00
5913;BME280;2982;42.684;23.356;2023-03-01T11:26:37;95300.50;;;9.89;100.00
5913;BME280;2982;42.684;23.356;2023-03-01T11:29:09;95253.94;;;9.53;100.00
5913;BME280;2982;42.684;23.356;2023-03-01T11:31:39;95296.53;;;9.65;100.00
5913;BME280;2982;42.684;23.356;2023-03-01T11:34:12;95286.72;;;9.76;100.00
5913;BME280;2982;42.684;23.356;2023-03-01T11:36:54;95300.44;;;9.72;100.00
5913;BME280;2982;42.684;23.356;2023-03-01T11:39:31;95284.44;;;9.51;100.00
5913;BME280;2982;42.684;23.356;2023-03-01T11:42:10;95277.25;;;9.42;100.00
5913;BME280;2982;42.684;23.356;2023-03-01T11:44:37;95265.13;;;9.28;100.00
5913;BME280;2982;42.684;23.356;2023-03-01T11:50:48;95270.75;;;9.74;100.00
5913;BME280;2982;42.684;23.356;2023-03-01T11:56:34;95235.66;;;9.65;100.00
5913;BME280;2982;42.684;23.356;2023-03-01T11:59:19;95254.66;;;9.56;100.00
5913;BME280;2982;42.684;23.356;2023-03-01T12:08:07;95264.19;;;9.31;100.00
5913;BME280;2982;42.684;23.356;2023-03-01T12:11:02;95254.72;;;9.35;100.00
5913;BME280;2982;42.684;23.356;2023-03-01T12:16:34;95254.94;;;9.69;100.00
5913;BME280;2982;42.684;23.356;2023-03-01T12:22:09;95180.06;;;9.42;100.00
5913;BME280;2982;42.684;23.356;2023-03-01T12:25:05;95240.72;;;10.02;100.00
5913;BME280;2982;42.684;23.356;2023-03-01T12:35:48;95238.03;;;9.49;100.00
5913;BME280;2982;42.684;23.356;2023-03-01T12:44:10;95223.63;;;9.31;100.00
5913;BME280;2982;42.684;23.356;2023-03-01T12:57:53;95231.25;;;8.70;100.00
5913;BME280;2982;42.684;23.356;2023-03-01T13:00:30;95220.22;;;8.92;100.00
5913;BME280;2982;42.684;23.356;2023-03-01T13:08:41;95222.16;;;8.45;100.00
5913;BME280;2982;42.684;23.356;2023-03-01T13:11:17;95229.19;;;8.38;100.00
5913;BME280;2982;42.684;23.356;2023-03-01T13:13:43;95228.78;;;8.49;100.00
5913;BME280;2982;42.684;23.356;2023-03-01T13:19:06;95231.13;;;8.73;100.00
5913;BME280;2982;42.684;23.356;2023-03-01T13:21:34;95231.94;;;8.74;100.00
5913;BME280;2982;42.684;23.356;2023-03-01T13:23:59;95221.25;;;8.67;100.00
5913;BME280;2982;42.684;23.356;2023-03-01T13:26:25;95234.78;;;8.46;100.00
5913;BME280;2982;42.684;23.356;2023-03-01T13:28:55;95230.84;;;8.39;100.00
5913;BME280;2982;42.684;23.356;2023-03-01T13:33:47;95234.28;;;8.78;100.00
5913;BME280;2982;42.684;23.356;2023-03-01T13:46:48;95236.81;;;8.78;100.00
5913;BME280;2982;42.684;23.356;2023-03-01T13:49:17;95234.19;;;8.81;100.00
5913;BME280;2982;42.684;23.356;2023-03-01T13:51:46;95217.97;;;8.65;100.00
5913;BME280;2982;42.684;23.356;2023-03-01T13:54:14;95209.47;;;8.66;100.00
5913;BME280;2982;42.684;23.356;2023-03-01T13:56:40;95230.63;;;8.65;100.00
5913;BME280;2982;42.684;23.356;2023-03-01T13:59:18;95221.19;;;8.69;100.00
5913;BME280;2982;42.684;23.356;2023-03-01T14:01:55;95229.00;;;8.84;100.00
5913;BME280;2982;42.684;23.356;2023-03-01T14:04:25;95222.06;;;8.88;100.00
5913;BME280;2982;42.684;23.356;2023-03-01T14:06:51;95216.19;;;8.67;100.00
5913;BME280;2982;42.684;23.356;2023-03-01T14:09:25;95210.03;;;8.93;100.00
5913;BME280;2982;42.684;23.356;2023-03-01T14:14:51;95224.41;;;8.93;100.00
5913;BME280;2982;42.684;23.356;2023-03-01T14:17:42;95229.88;;;8.83;100.00
5913;BME280;2982;42.684;23.356;2023-03-01T14:20:29;95224.03;;;8.61;100.00
5913;BME280;2982;42.684;23.356;2023-03-01T14:22:58;95224.41;;;8.52;100.00
5913;BME280;2982;42.684;23.356;2023-03-01T14:27:57;95222.13;;;8.46;100.00
5913;BME280;2982;42.684;23.356;2023-03-01T14:30:43;95202.09;;;8.18;100.00
5913;BME280;2982;42.684;23.356;2023-03-01T14:38:36;95204.91;;;7.89;100.00
5913;BME280;2982;42.684;23.356;2023-03-01T14:41:05;95182.09;;;7.69;100.00
5913;BME280;2982;42.684;23.356;2023-03-01T14:43:31;95219.38;;;7.85;100.00
5913;BME280;2982;42.684;23.356;2023-03-01T14:45:57;95216.34;;;7.77;100.00
5913;BME280;2982;42.684;23.356;2023-03-01T14:48:23;95182.06;;;7.47;100.00
5913;BME280;2982;42.684;23.356;2023-03-01T14:50:49;95208.66;;;7.57;100.00
5913;BME280;2982;42.684;23.356;2023-03-01T14:53:27;95198.16;;;7.44;100.00
5913;BME280;2982;42.684;23.356;2023-03-01T14:56:00;95195.03;;;7.38;100.00
5913;BME280;2982;42.684;23.356;2023-03-01T14:58:26;95194.03;;;7.42;100.00
5913;BME280;2982;42.684;23.356;2023-03-01T15:00:57;95213.44;;;7.65;100.00